| time (UTC) | temp C | wind direction | speed KPH | gust KPH | rain 1hr cm | rain 24hr cm | rain mn cm | humidity % | barometer mb |
| 20260510193900 | 7 | 37 | 0.0 | 0.0 | 0.00 | 0.00 | 0.00 | 86 | 1027.2 |
| 20260510192509 | 7 | 32 | 0.0 | 0.0 | 0.00 | 0.00 | 0.00 | 86 | 1027.4 |
| 20260510191240 | 7 | 41 | 3.2 | 6.4 | 0.00 | 0.00 | 0.00 | 84 | 1027.4 |
| 20260510185918 | 7 | 29 | 0.0 | 0.0 | 0.00 | 0.00 | 0.00 | 82 | 1027.5 |
| 20260510184530 | 8 | 40 | 0.0 | 6.4 | 0.00 | 0.00 | 0.00 | 81 | 1027.1 |
| 20260510183115 | 8 | 32 | 0.0 | 0.0 | 0.00 | 0.00 | 0.00 | 77 | 1027.2 |
| 20260510181710 | 10 | 31 | 0.0 | 0.0 | 0.00 | 0.00 | 0.00 | 74 | 1027.1 |
| 20260510180324 | 12 | 27 | 0.0 | 0.0 | 0.00 | 0.00 | 0.00 | 66 | 1027.1 |
| 20260510174920 | 13 | 32 | 0.0 | 0.0 | 0.00 | 0.00 | 0.00 | 57 | 1026.9 |
| 20260510173429 | 15 | 33 | 3.2 | 6.4 | 0.00 | 0.00 | 0.00 | 52 | 1027.0 |
| 20260510172005 | 15 | 41 | 3.2 | 6.4 | 0.00 | 0.00 | 0.00 | 47 | 1027.1 |
| 20260510170714 | 16 | 31 | 3.2 | 6.4 | 0.00 | 0.00 | 0.00 | 44 | 1027.3 |
| 20260510165345 | 17 | 24 | 3.2 | 6.4 | 0.00 | 0.00 | 0.00 | 43 | 1027.3 |
| 20260510164144 | 17 | 22 | 11.3 | 17.7 | 0.00 | 0.00 | 0.00 | 42 | 1027.2 |
| 20260510162819 | 17 | 17 | 14.5 | 17.7 | 0.00 | 0.00 | 0.00 | 43 | 1027.6 |
| 20260510161355 | 17 | 12 | 14.5 | 14.5 | 0.00 | 0.00 | 0.00 | 43 | 1027.8 |
| 20260510160144 | 17 | 344 | 11.3 | 14.5 | 0.00 | 0.00 | 0.00 | 43 | 1027.9 |
| 20260510154942 | 17 | 29 | 17.7 | 17.7 | 0.00 | 0.00 | 0.00 | 45 | 1027.9 |
| 20260510153525 | 17 | 5 | 17.7 | 17.7 | 0.00 | 0.00 | 0.00 | 44 | 1028.0 |
| 20260510152155 | 17 | 33 | 6.4 | 6.4 | 0.00 | 0.00 | 0.00 | 48 | 1027.8 |
| 20260510150940 | 17 | 17 | 20.9 | 25.7 | 0.00 | 0.00 | 0.00 | 45 | 1028.1 |
| 20260510145602 | 17 | 48 | 3.2 | 6.4 | 0.00 | 0.00 | 0.00 | 49 | 1028.2 |
| 20260510144330 | 17 | 61 | 17.7 | 25.7 | 0.00 | 0.00 | 0.00 | 46 | 1028.2 |
| 20260510143000 | 17 | 33 | 3.2 | 6.4 | 0.00 | 0.00 | 0.00 | 47 | 1028.5 |
| 20260510141510 | 17 | 350 | 29.0 | 46.7 | 0.00 | 0.00 | 0.00 | 46 | 1028.5 |
| 20260510140033 | 17 | 38 | 11.3 | 14.5 | 0.00 | 0.00 | 0.00 | 50 | 1028.6 |
| 20260510134559 | 17 | 28 | 14.5 | 17.7 | 0.00 | 0.00 | 0.00 | 48 | 1028.8 |
| 20260510133110 | 17 | 356 | 29.0 | 46.7 | 0.00 | 0.00 | 0.00 | 50 | 1028.7 |
| 20260510131623 | 17 | 65 | 20.9 | 25.7 | 0.00 | 0.00 | 0.00 | 51 | 1028.9 |
| 20260510130325 | 17 | 6 | 29.0 | 40.2 | 0.00 | 0.00 | 0.00 | 51 | 1029.0 |
| 20260510125123 | 17 | 84 | 6.4 | 17.7 | 0.00 | 0.00 | 0.00 | 53 | 1029.1 |
| 20260510123639 | 17 | 26 | 3.2 | 6.4 | 0.00 | 0.00 | 0.00 | 55 | 1029.3 |
| 20260510122358 | 17 | 101 | 25.7 | 32.2 | 0.00 | 0.00 | 0.00 | 55 | 1029.3 |
| 20260510121040 | 16 | 353 | 20.9 | 32.2 | 0.00 | 0.00 | 0.00 | 54 | 1029.5 |
| 20260510115715 | 17 | 33 | 6.4 | 14.5 | 0.00 | 0.00 | 0.00 | 56 | 1029.8 |
| 20260510114355 | 17 | 36 | 14.5 | 17.7 | 0.00 | 0.00 | 0.00 | 55 | 1029.8 |
| 20260510112914 | 16 | 4 | 11.3 | 17.7 | 0.00 | 0.00 | 0.00 | 57 | 1030.2 |
| 20260510111520 | 16 | 24 | 3.2 | 6.4 | 0.00 | 0.00 | 0.00 | 59 | 1030.3 |
| 20260510110239 | 15 | 54 | 20.9 | 25.7 | 0.00 | 0.00 | 0.00 | 57 | 1030.6 |
| 20260510104955 | 15 | 21 | 14.5 | 14.5 | 0.00 | 0.00 | 0.00 | 58 | 1030.8 |
| 20260510103604 | 15 | 49 | 6.4 | 6.4 | 0.00 | 0.00 | 0.00 | 61 | 1030.8 |
| 20260510102354 | 15 | 12 | 3.2 | 6.4 | 0.00 | 0.00 | 0.00 | 58 | 1030.8 |
| 20260510101150 | 15 | 25 | 6.4 | 14.5 | 0.00 | 0.00 | 0.00 | 59 | 1031.2 |
| 20260510095732 | 15 | 10 | 6.4 | 14.5 | 0.00 | 0.00 | 0.00 | 59 | 1031.3 |
| 20260510094450 | 13 | 338 | 11.3 | 14.5 | 0.00 | 0.00 | 0.00 | 64 | 1031.2 |